This is the latest recevied weather packets stored in our database for station/object DB5WY-13. If no packets are shown the sender has not sent any weather packets the latest 10 day(s).
| Time | Temp. | Humidity | Pressure | Rain* | Wind** | Luminosity | Snow |
|---|---|---|---|---|---|---|---|
| 1777635015 | 24.44° C | 25% | 1027.8 hPa | 0 mm | - | - | - |
| 1777634415 | 24.44° C | 27% | 1027.9 hPa | 0 mm | - | - | - |
| 1777633815 | 25° C | 24% | 1028.1 hPa | 0 mm | - | - | - |
| 1777633215 | 23.89° C | 25% | 1028.2 hPa | 0 mm | - | - | - |
| 1777632615 | 23.89° C | 25% | 1028.1 hPa | 0 mm | - | - | - |
| 1777632015 | 23.89° C | 25% | 1028.2 hPa | 0 mm | - | - | - |
| 1777631415 | 23.89° C | 25% | 1028.4 hPa | 0 mm | - | - | - |
| 1777630815 | 22.22° C | 28% | 1028.1 hPa | 0 mm | - | - | - |
| 1777630215 | 20.56° C | 27% | 1028.4 hPa | 0 mm | - | - | - |
| 1777629615 | 20° C | 29% | 1028.5 hPa | 0 mm | - | - | - |
| 1777629015 | 21.11° C | 27% | 1028.4 hPa | 0 mm | - | - | - |
| 1777628415 | 20.56° C | 29% | 1028.5 hPa | 0 mm | - | - | - |
| 1777627815 | 19.44° C | 30% | 1028.5 hPa | 0 mm | - | - | - |
| 1777627215 | 19.44° C | 30% | 1028.5 hPa | 0 mm | - | - | - |
| 1777626615 | 18.33° C | 32% | 1028.6 hPa | 0 mm | - | - | - |
| 1777626015 | 17.78° C | 34% | 1028.6 hPa | 0 mm | - | - | - |
| 1777625415 | 17.22° C | 34% | 1028.6 hPa | 0 mm | - | - | - |
| 1777624816 | 16.67° C | 35% | 1028.9 hPa | 0 mm | - | - | - |
| 1777624216 | 16.11° C | 35% | 1028.5 hPa | 0 mm | - | - | - |
| 1777623616 | 15.56° C | 34% | 1028.7 hPa | 0 mm | - | - | - |
| 1777623016 | 16.67° C | 33% | 1028.8 hPa | 0 mm | - | - | - |
| 1777622416 | 16.11° C | 35% | 1028.6 hPa | 0 mm | - | - | - |
| 1777621816 | 15° C | 35% | 1028.5 hPa | 0 mm | - | - | - |
| 1777621216 | 15° C | 36% | 1028.6 hPa | 0 mm | - | - | - |
| 1777620616 | 14.44° C | 36% | 1028.5 hPa | 0 mm | - | - | - |
* Rain latest hour (hover to see other rain measurements)
** Current wind speed in m/s (hover to see current wind gust speed)